createdAt,value
2022-11-13T00:00:30.340Z,12.90
2022-11-13T00:03:13.410Z,12.57
2022-11-13T00:06:00.685Z,13.43
2022-11-13T00:08:43.954Z,12.83
2022-11-13T00:11:28.566Z,13.87
2022-11-13T00:14:11.576Z,12.83
2022-11-13T00:16:54.650Z,14.60
2022-11-13T00:19:38.191Z,14.97
2022-11-13T00:22:21.281Z,14.13
2022-11-13T00:25:04.521Z,15.23
2022-11-13T00:27:48.974Z,14.17
2022-11-13T00:30:32.037Z,15.00
2022-11-13T00:33:26.415Z,13.40
2022-11-13T00:36:21.350Z,13.73
2022-11-13T00:39:06.619Z,14.57
2022-11-13T00:41:49.694Z,14.07
2022-11-13T00:44:34.113Z,15.33
2022-11-13T00:47:17.238Z,15.53
2022-11-13T00:50:00.249Z,15.57
2022-11-13T00:52:43.284Z,15.17
2022-11-13T00:55:26.342Z,16.23
2022-11-13T00:58:09.384Z,15.70
2022-11-13T01:00:53.909Z,16.23
2022-11-13T01:03:37.138Z,16.13
2022-11-13T01:06:23.388Z,15.07
2022-11-13T01:09:06.590Z,15.70
2022-11-13T01:11:49.777Z,15.40
2022-11-13T01:14:32.799Z,16.40
2022-11-13T01:17:17.236Z,17.70
2022-11-13T01:20:00.397Z,17.30
2022-11-13T01:22:43.422Z,17.37
2022-11-13T01:25:26.859Z,16.20
2022-11-13T01:28:10.086Z,15.80
2022-11-13T01:30:53.094Z,17.23
2022-11-13T01:33:37.781Z,15.83
2022-11-13T01:36:22.638Z,15.87
2022-11-13T01:39:05.785Z,15.97
2022-11-13T01:41:48.800Z,16.57
2022-11-13T01:44:50.497Z,16.43
2022-11-13T01:47:33.659Z,15.60
2022-11-13T01:50:18.187Z,15.80
2022-11-13T01:53:01.242Z,16.60
2022-11-13T01:55:44.784Z,17.43
2022-11-13T01:58:28.055Z,15.67
2022-11-13T02:01:11.295Z,17.03
2022-11-13T02:03:54.396Z,17.10
2022-11-13T02:06:43.877Z,16.00
2022-11-13T02:09:30.254Z,16.43
2022-11-13T02:12:15.692Z,16.50
2022-11-13T02:15:01.035Z,16.33
2022-11-13T02:17:47.035Z,16.17
2022-11-13T02:20:38.430Z,17.10
2022-11-13T02:23:31.044Z,16.13
2022-11-13T02:26:18.090Z,15.83
2022-11-13T02:29:01.063Z,15.90
2022-11-13T02:31:44.103Z,15.27
2022-11-13T02:34:27.109Z,16.20
2022-11-13T02:37:10.225Z,16.40
2022-11-13T02:39:53.253Z,17.63
2022-11-13T02:42:37.818Z,15.13
2022-11-13T02:45:20.838Z,14.57
2022-11-13T02:48:03.875Z,15.83
2022-11-13T02:50:47.311Z,15.37
2022-11-13T02:53:30.360Z,16.30
2022-11-13T02:56:13.360Z,15.63
2022-11-13T02:58:57.782Z,16.17
2022-11-13T03:01:40.857Z,14.90
2022-11-13T03:04:24.032Z,16.30
2022-11-13T03:07:07.191Z,15.70
2022-11-13T03:09:50.227Z,16.17
2022-11-13T03:12:34.382Z,15.50
2022-11-13T03:15:18.994Z,17.00
2022-11-13T03:18:04.465Z,16.43
2022-11-13T03:20:47.496Z,14.80
2022-11-13T03:23:30.544Z,15.53
2022-11-13T03:26:15.350Z,15.77
2022-11-13T03:28:58.754Z,14.47
2022-11-13T03:31:43.187Z,16.07
2022-11-13T03:34:26.710Z,15.00
2022-11-13T03:37:09.732Z,16.00
2022-11-13T03:39:52.784Z,15.77
2022-11-13T03:42:36.259Z,14.83
2022-11-13T03:45:19.225Z,14.87
2022-11-13T03:48:03.587Z,15.33
2022-11-13T03:50:49.807Z,15.83
2022-11-13T03:53:32.839Z,16.23
2022-11-13T03:56:15.880Z,16.77
2022-11-13T03:58:58.905Z,16.47
2022-11-13T04:01:42.062Z,16.03
2022-11-13T04:04:26.548Z,14.40
2022-11-13T04:07:09.592Z,15.10
2022-11-13T04:09:52.695Z,16.00
2022-11-13T04:12:35.718Z,16.37
2022-11-13T04:15:19.521Z,16.20
2022-11-13T04:18:02.748Z,16.33
2022-11-13T04:20:47.209Z,16.77
2022-11-13T04:23:30.554Z,16.60
2022-11-13T04:26:13.563Z,18.10
2022-11-13T04:28:56.699Z,19.03
2022-11-13T04:31:39.759Z,18.70
2022-11-13T04:34:22.818Z,19.73
2022-11-13T04:37:07.280Z,21.77
2022-11-13T04:39:50.349Z,21.73
2022-11-13T04:42:50.740Z,22.80
2022-11-13T04:45:33.952Z,21.90
2022-11-13T04:48:17.115Z,21.93
2022-11-13T04:51:00.344Z,21.73
2022-11-13T04:53:44.878Z,22.03
2022-11-13T04:56:27.915Z,21.23
2022-11-13T04:59:10.958Z,20.37
2022-11-13T05:01:55.708Z,22.37
2022-11-13T05:04:38.886Z,21.33
2022-11-13T05:07:22.037Z,22.77
2022-11-13T05:10:07.437Z,22.30
2022-11-13T05:12:50.652Z,22.53
2022-11-13T05:15:34.138Z,23.33
2022-11-13T05:18:17.233Z,22.80
2022-11-13T05:21:00.706Z,21.53
2022-11-13T05:23:44.014Z,22.17
2022-11-13T05:26:28.393Z,23.07
2022-11-13T05:29:11.393Z,21.67
2022-11-13T05:31:54.434Z,24.07
2022-11-13T05:34:37.457Z,22.70
2022-11-13T05:37:20.578Z,22.50
2022-11-13T05:40:03.586Z,24.47
2022-11-13T05:42:48.081Z,23.53
2022-11-13T05:45:31.722Z,23.30
2022-11-13T05:48:14.727Z,24.23
2022-11-13T05:51:02.650Z,24.30
2022-11-13T05:53:46.265Z,23.10
2022-11-13T05:56:31.124Z,23.67
2022-11-13T05:59:15.565Z,22.30
2022-11-13T06:01:58.651Z,24.20
2022-11-13T06:04:41.737Z,20.87
2022-11-13T06:07:24.761Z,21.87
2022-11-13T06:10:08.717Z,22.97
2022-11-13T06:12:51.724Z,22.40
2022-11-13T06:15:36.095Z,23.27
2022-11-13T06:18:26.466Z,21.63
2022-11-13T06:21:12.056Z,22.87
2022-11-13T06:23:55.107Z,22.97
2022-11-13T06:26:38.868Z,21.80
2022-11-13T06:29:22.144Z,21.97
2022-11-13T06:32:06.811Z,22.33
2022-11-13T06:34:49.845Z,23.20
2022-11-13T06:37:34.827Z,23.10
2022-11-13T06:40:18.050Z,23.57
2022-11-13T06:43:01.118Z,21.80
2022-11-13T06:45:44.123Z,22.33
2022-11-13T06:48:28.829Z,23.87
2022-11-13T06:51:15.794Z,22.00
2022-11-13T06:53:59.546Z,22.37
2022-11-13T06:56:45.578Z,23.60
2022-11-13T06:59:28.611Z,23.53
2022-11-13T07:02:12.932Z,23.47
2022-11-13T07:04:57.335Z,21.87
2022-11-13T07:07:40.329Z,23.07
2022-11-13T07:10:23.349Z,23.03
2022-11-13T07:13:06.937Z,22.47
2022-11-13T07:15:49.997Z,23.20
2022-11-13T07:18:33.636Z,24.53
2022-11-13T07:21:18.454Z,25.37
2022-11-13T07:24:01.488Z,22.73
2022-11-13T07:26:44.517Z,36.90
2022-11-13T07:29:27.582Z,24.63
2022-11-13T07:32:10.574Z,22.23
2022-11-13T07:34:53.864Z,23.73
2022-11-13T07:37:38.311Z,24.37
2022-11-13T07:40:21.373Z,24.00
2022-11-13T07:43:04.963Z,22.77
2022-11-13T07:45:47.975Z,22.47
2022-11-13T07:48:31.388Z,22.33
2022-11-13T07:51:14.729Z,21.77
2022-11-13T07:53:59.163Z,22.00
2022-11-13T07:56:42.165Z,22.43
2022-11-13T07:59:25.145Z,23.80
2022-11-13T08:02:08.247Z,23.40
2022-11-13T08:04:51.262Z,22.10
2022-11-13T08:07:34.334Z,22.43
2022-11-13T08:10:20.364Z,23.37
2022-11-13T08:13:07.022Z,24.33
2022-11-13T08:15:50.134Z,23.57
2022-11-13T08:18:33.601Z,22.90
2022-11-13T08:21:16.785Z,23.30
2022-11-13T08:23:59.814Z,24.13
2022-11-13T08:26:44.274Z,24.73
2022-11-13T08:29:27.410Z,23.83
2022-11-13T08:32:10.463Z,24.77
2022-11-13T08:34:53.518Z,24.33
2022-11-13T08:37:36.507Z,24.63
2022-11-13T08:40:19.803Z,25.53
2022-11-13T08:43:05.742Z,25.90
2022-11-13T08:45:49.048Z,24.63
2022-11-13T08:48:32.210Z,24.70
2022-11-13T08:51:15.306Z,24.80
2022-11-13T08:53:58.368Z,26.27
2022-11-13T08:56:41.836Z,26.23
2022-11-13T08:59:27.285Z,25.70
2022-11-13T09:02:13.011Z,25.07
2022-11-13T09:04:56.090Z,25.27
2022-11-13T09:07:39.156Z,24.43
2022-11-13T09:10:22.280Z,26.13
2022-11-13T09:13:08.900Z,24.80
2022-11-13T09:15:53.400Z,24.83
2022-11-13T09:18:36.495Z,24.23
2022-11-13T09:21:20.076Z,24.13
2022-11-13T09:24:03.332Z,24.17
2022-11-13T09:26:46.421Z,23.33
2022-11-13T09:29:29.668Z,23.80
2022-11-13T09:32:14.121Z,25.53
2022-11-13T09:34:57.202Z,25.47
2022-11-13T09:37:40.300Z,24.30
2022-11-13T09:40:30.831Z,25.43
2022-11-13T09:43:36.419Z,24.47
2022-11-13T09:46:27.342Z,25.87
2022-11-13T09:49:18.260Z,26.03
2022-11-13T09:52:07.105Z,27.27
2022-11-13T09:54:50.147Z,27.40
2022-11-13T09:57:42.350Z,26.27
2022-11-13T10:00:25.389Z,27.80
2022-11-13T10:03:46.649Z,27.67
2022-11-13T10:06:48.141Z,26.20
2022-11-13T10:09:39.575Z,27.47
2022-11-13T10:12:23.452Z,28.17
2022-11-13T10:15:07.968Z,28.40
2022-11-13T10:17:56.790Z,29.47
2022-11-13T10:20:42.496Z,26.97
2022-11-13T10:23:32.473Z,27.73
2022-11-13T10:26:18.362Z,27.83
2022-11-13T10:29:03.968Z,26.80
2022-11-13T10:31:49.222Z,28.07
2022-11-13T10:34:33.784Z,26.00
2022-11-13T10:37:29.674Z,27.73
2022-11-13T10:40:25.085Z,28.27
2022-11-13T10:43:15.641Z,26.83
2022-11-13T10:46:00.930Z,25.53
2022-11-13T10:48:44.001Z,25.87
2022-11-13T10:51:29.210Z,26.80
2022-11-13T10:54:24.236Z,26.43
2022-11-13T10:57:25.449Z,27.50
2022-11-13T11:00:22.225Z,24.30
2022-11-13T11:03:05.366Z,26.67
2022-11-13T11:05:56.953Z,27.60
2022-11-13T11:08:40.336Z,26.93
2022-11-13T11:11:40.862Z,26.03
2022-11-13T11:14:32.856Z,27.03
2022-11-13T11:17:18.269Z,27.80
2022-11-13T11:20:07.540Z,27.60
2022-11-13T11:22:54.346Z,25.83
2022-11-13T11:25:40.663Z,26.47
2022-11-13T11:28:31.669Z,27.90
2022-11-13T11:31:26.734Z,27.10
2022-11-13T11:34:18.021Z,27.40
2022-11-13T11:37:06.979Z,27.10
2022-11-13T11:39:57.581Z,28.40
2022-11-13T11:42:48.609Z,27.30
2022-11-13T11:45:36.027Z,25.83
2022-11-13T11:48:23.332Z,28.43
2022-11-13T11:51:18.938Z,28.60
2022-11-13T11:54:15.934Z,27.40
2022-11-13T11:57:05.328Z,26.20
2022-11-13T12:00:03.615Z,28.17
2022-11-13T12:03:03.219Z,25.63
2022-11-13T12:05:58.713Z,26.50
2022-11-13T12:08:49.489Z,27.37
2022-11-13T12:11:35.665Z,28.13
2022-11-13T12:14:29.921Z,52.53
2022-11-13T12:17:31.357Z,26.53
2022-11-13T12:20:26.165Z,26.20
2022-11-13T12:23:27.982Z,26.87
2022-11-13T12:26:21.596Z,26.00
2022-11-13T12:29:15.810Z,25.10
2022-11-13T12:32:09.045Z,24.57
2022-11-13T12:34:56.517Z,24.47
2022-11-13T12:37:48.170Z,24.70
2022-11-13T12:40:41.240Z,25.53
2022-11-13T12:43:38.085Z,46.60
2022-11-13T12:46:21.834Z,23.27
2022-11-13T12:49:17.744Z,24.33
2022-11-13T12:52:02.316Z,23.63
2022-11-13T12:54:45.431Z,23.83
2022-11-13T12:57:30.876Z,23.50
2022-11-13T13:00:25.844Z,23.77
2022-11-13T13:03:28.463Z,26.57
2022-11-13T13:06:30.804Z,24.60
2022-11-13T13:09:28.830Z,23.43
2022-11-13T13:12:19.721Z,23.90
2022-11-13T13:15:14.183Z,25.00
2022-11-13T13:18:10.799Z,29.67
2022-11-13T13:21:03.157Z,24.73
2022-11-13T13:23:48.189Z,26.70
2022-11-13T13:26:31.246Z,24.47
2022-11-13T13:29:26.193Z,23.60
2022-11-13T13:32:21.213Z,26.27
2022-11-13T13:35:11.294Z,26.10
2022-11-13T13:38:01.649Z,27.20
2022-11-13T13:40:59.856Z,26.33
2022-11-13T13:43:58.366Z,26.10
2022-11-13T13:46:43.195Z,27.07
2022-11-13T13:49:29.627Z,26.47
2022-11-13T13:52:16.106Z,26.07
2022-11-13T13:55:00.812Z,33.77
2022-11-13T13:57:44.008Z,26.37
2022-11-13T14:00:27.515Z,26.70
2022-11-13T14:03:20.461Z,27.93
2022-11-13T14:06:20.260Z,26.67
2022-11-13T14:09:10.123Z,28.37
2022-11-13T14:12:00.567Z,28.83
2022-11-13T14:14:43.954Z,28.00
2022-11-13T14:17:29.208Z,39.37
2022-11-13T14:20:13.915Z,27.90
2022-11-13T14:22:58.516Z,55.20
2022-11-13T14:25:42.266Z,143.50
2022-11-13T14:28:27.808Z,31.70
2022-11-13T14:31:13.822Z,29.37
2022-11-13T14:33:58.175Z,30.67
2022-11-13T14:36:41.934Z,30.43
2022-11-13T14:39:30.060Z,30.53
2022-11-13T14:42:19.145Z,32.60
2022-11-13T14:45:20.224Z,34.23
2022-11-13T14:48:05.561Z,31.67
2022-11-13T14:50:52.722Z,29.70
2022-11-13T14:53:37.748Z,29.77
2022-11-13T14:56:33.518Z,30.70
2022-11-13T14:59:19.960Z,29.67
2022-11-13T15:02:03.404Z,28.63
2022-11-13T15:04:46.713Z,30.67
2022-11-13T15:07:31.839Z,29.67
2022-11-13T15:10:20.551Z,30.60
2022-11-13T15:13:11.965Z,30.23
2022-11-13T15:15:55.031Z,29.93
2022-11-13T15:18:38.147Z,30.83
2022-11-13T15:30:55.259Z,34.43
2022-11-13T15:33:38.329Z,33.50
2022-11-13T15:36:21.476Z,32.33
2022-11-13T15:39:06.638Z,33.73
2022-11-13T15:41:50.621Z,36.00
2022-11-13T15:44:33.612Z,80.77
2022-11-13T15:47:28.844Z,77.03
2022-11-13T15:50:14.794Z,63.93
2022-11-13T15:53:05.039Z,56.30
2022-11-13T15:55:49.876Z,48.27
2022-11-13T15:58:34.546Z,51.63
2022-11-13T16:01:18.486Z,51.73
2022-11-13T16:04:05.720Z,50.57
2022-11-13T16:06:49.457Z,53.20
2022-11-13T16:09:32.583Z,53.37
2022-11-13T16:12:15.850Z,50.43
2022-11-13T16:14:59.020Z,51.60
2022-11-13T16:17:46.638Z,48.87
2022-11-13T16:20:31.325Z,49.33
2022-11-13T16:23:17.619Z,45.33
2022-11-13T16:26:04.487Z,42.47
2022-11-13T16:29:12.054Z,43.07
2022-11-13T16:31:50.815Z,42.87
2022-11-13T16:34:33.812Z,40.97
2022-11-13T16:37:19.859Z,41.27
2022-11-13T16:40:03.000Z,41.43
2022-11-13T16:42:46.038Z,41.50
2022-11-13T16:45:29.073Z,42.03
2022-11-13T16:48:14.593Z,42.00
2022-11-13T16:50:57.601Z,42.83
2022-11-13T16:53:42.103Z,42.50
2022-11-13T16:56:30.272Z,44.03
2022-11-13T16:59:13.449Z,41.27
2022-11-13T17:01:56.893Z,40.87
2022-11-13T17:04:39.935Z,41.13
2022-11-13T17:07:23.404Z,41.90
2022-11-13T17:10:30.328Z,46.80
2022-11-13T17:13:12.203Z,39.53
2022-11-13T17:15:55.377Z,41.97
2022-11-13T17:18:38.348Z,41.77
2022-11-13T17:21:21.979Z,39.93
2022-11-13T17:24:05.375Z,41.47
2022-11-13T17:26:49.817Z,41.97
2022-11-13T17:29:32.897Z,43.40
2022-11-13T17:32:16.039Z,40.43
2022-11-13T17:34:59.528Z,40.77
2022-11-13T17:37:42.738Z,40.80
2022-11-13T17:40:25.843Z,45.30
2022-11-13T17:43:10.446Z,43.10
2022-11-13T17:45:53.894Z,41.97
2022-11-13T17:48:37.566Z,46.63
2022-11-13T17:51:20.595Z,47.47
2022-11-13T17:54:03.665Z,47.27
2022-11-13T17:56:47.363Z,46.20
2022-11-13T17:59:31.808Z,44.27
2022-11-13T18:02:15.021Z,42.27
2022-11-13T18:04:59.248Z,40.77
2022-11-13T18:07:42.668Z,42.20
2022-11-13T18:10:25.740Z,43.40
2022-11-13T18:13:09.504Z,41.53
2022-11-13T18:15:54.295Z,40.60
2022-11-13T18:18:37.571Z,38.00
2022-11-13T18:21:23.627Z,40.13
2022-11-13T18:24:09.223Z,40.67
2022-11-13T18:26:52.283Z,41.27
2022-11-13T18:29:35.921Z,44.87
2022-11-13T18:32:20.464Z,40.77
2022-11-13T18:35:03.839Z,40.73
2022-11-13T18:37:46.970Z,38.57
2022-11-13T18:40:29.950Z,37.53
2022-11-13T18:43:13.044Z,40.77
2022-11-13T18:46:00.103Z,49.30
2022-11-13T18:48:45.876Z,46.03
2022-11-13T18:51:30.508Z,41.07
2022-11-13T18:54:14.926Z,37.00
2022-11-13T18:56:58.013Z,34.20
2022-11-13T18:59:41.052Z,32.40
2022-11-13T19:02:24.996Z,32.63
2022-11-13T19:05:09.798Z,33.50
2022-11-13T19:07:52.823Z,31.97
2022-11-13T19:10:35.911Z,33.50
2022-11-13T19:13:18.955Z,31.70
2022-11-13T19:17:03.035Z,32.27
2022-11-13T19:19:46.495Z,33.67
2022-11-13T19:22:31.077Z,32.67
2022-11-13T19:25:14.118Z,31.37
2022-11-13T19:27:57.398Z,31.13
2022-11-13T19:30:45.590Z,28.50
2022-11-13T19:33:29.504Z,30.87
2022-11-13T19:36:14.578Z,29.67
2022-11-13T19:39:00.237Z,31.20
2022-11-13T19:41:43.282Z,32.73
2022-11-13T19:44:26.377Z,33.43
2022-11-13T19:47:09.507Z,34.83
2022-11-13T19:49:52.571Z,33.57
2022-11-13T19:52:35.582Z,34.73
2022-11-13T19:55:20.066Z,35.10
2022-11-13T19:58:03.105Z,36.67
2022-11-13T20:00:46.252Z,37.00
2022-11-13T20:03:29.371Z,36.10
2022-11-13T20:06:14.931Z,38.23
2022-11-13T20:08:59.657Z,36.83
2022-11-13T20:11:45.291Z,35.23
2022-11-13T20:14:28.501Z,34.47
2022-11-13T20:17:11.665Z,31.10
2022-11-13T20:19:54.775Z,31.63
2022-11-13T20:22:37.943Z,31.17
2022-11-13T20:25:21.045Z,32.83
2022-11-13T20:28:05.814Z,30.83
2022-11-13T20:30:49.043Z,30.10
2022-11-13T20:33:33.221Z,30.57
2022-11-13T20:36:17.690Z,27.63
2022-11-13T20:39:03.339Z,28.03
2022-11-13T20:41:49.122Z,28.00
2022-11-13T20:44:33.679Z,28.20
2022-11-13T20:47:16.962Z,27.37
2022-11-13T20:50:00.319Z,25.93
2022-11-13T20:52:43.478Z,26.10
2022-11-13T20:55:26.732Z,25.53
2022-11-13T20:58:09.750Z,27.77
2022-11-13T21:00:54.318Z,27.27
2022-11-13T21:03:41.271Z,27.17
2022-11-13T21:06:26.085Z,26.80
2022-11-13T21:09:09.449Z,27.33
2022-11-13T21:11:52.443Z,27.83
2022-11-13T21:14:35.585Z,26.07
2022-11-13T21:17:20.006Z,28.27
2022-11-13T21:20:03.064Z,29.43
2022-11-13T21:22:46.074Z,29.70
2022-11-13T21:25:29.237Z,26.43
2022-11-13T21:28:12.469Z,28.97
2022-11-13T21:30:55.480Z,29.73
2022-11-13T21:33:41.923Z,30.47
2022-11-13T21:36:26.793Z,38.50
2022-11-13T21:39:10.065Z,35.80
2022-11-13T21:41:53.552Z,32.90
2022-11-13T21:44:36.829Z,33.17
2022-11-13T21:47:19.940Z,35.70
2022-11-13T21:50:04.406Z,43.43
2022-11-13T21:52:47.426Z,47.17
2022-11-13T21:55:30.424Z,51.03
2022-11-13T21:58:13.893Z,51.73
2022-11-13T22:00:56.950Z,55.30
2022-11-13T22:03:40.305Z,55.50
2022-11-13T22:06:26.562Z,54.03
2022-11-13T22:09:14.695Z,50.83
2022-11-13T22:11:57.969Z,51.80
2022-11-13T22:14:41.108Z,53.23
2022-11-13T22:17:24.125Z,52.20
2022-11-13T22:20:08.486Z,52.83
2022-11-13T22:22:52.953Z,52.27
2022-11-13T22:25:35.927Z,54.43
2022-11-13T22:28:19.083Z,52.30
2022-11-13T22:31:02.319Z,53.23
2022-11-13T22:33:49.572Z,52.97
2022-11-13T22:36:36.497Z,51.77
2022-11-13T22:39:20.976Z,52.17
2022-11-13T22:42:03.949Z,52.10
2022-11-13T22:44:55.923Z,54.00
2022-11-13T22:47:39.554Z,52.93
2022-11-13T22:50:22.529Z,50.03
2022-11-13T22:53:05.673Z,47.33
2022-11-13T22:55:50.058Z,47.37
2022-11-13T22:58:33.711Z,42.57
2022-11-13T23:01:19.403Z,46.60
2022-11-13T23:04:04.144Z,40.83
2022-11-13T23:06:47.178Z,40.87
2022-11-13T23:09:30.183Z,42.00
2022-11-13T23:12:14.586Z,41.53
2022-11-13T23:14:57.648Z,40.67
2022-11-13T23:17:40.893Z,38.37
2022-11-13T23:20:23.956Z,39.67
2022-11-13T23:23:06.935Z,40.37
2022-11-13T23:25:49.937Z,38.43
2022-11-13T23:28:34.563Z,42.67
2022-11-13T23:31:18.020Z,43.30
2022-11-13T23:34:00.998Z,46.57
2022-11-13T23:36:44.027Z,47.23
2022-11-13T23:39:27.093Z,45.13
2022-11-13T23:42:10.069Z,44.23
2022-11-13T23:44:54.504Z,57.47
2022-11-13T23:47:37.521Z,60.13
2022-11-13T23:50:20.729Z,48.27
2022-11-13T23:53:03.699Z,45.97
2022-11-13T23:55:46.787Z,48.97
2022-11-13T23:58:31.931Z,47.13
